Time;durP1;ratioP1;P1;durP2;ratioP2;P2;SDS_P1;SDS_P2;PMS_P1;PMS_P2;Temp;Humidity;BMP_temperature;BMP_pressure;BME280_temperature;BME280_humidity;BME280_pressure;Samples;Min_cycle;Max_cycle;Signal;HPM_P1;HPM_P2
2023/06/15 00:01:47;;;;;;;6.32;3.60;;;20.40;88.10;;;;;;5021561;28;20025;-70
2023/06/15 00:04:12;;;;;;;4.38;3.80;;;20.40;88.30;;;;;;5027283;28;20034;-70
2023/06/15 00:06:38;;;;;;;3.67;3.38;;;20.30;88.50;;;;;;5009288;28;20390;-70
2023/06/15 00:09:04;;;;;;;8.23;3.90;;;20.30;89.20;;;;;;5025117;28;20031;-70
2023/06/15 00:11:29;;;;;;;4.18;3.78;;;20.20;89.00;;;;;;5022795;28;20017;-70
2023/06/15 00:13:55;;;;;;;5.43;3.50;;;20.20;89.10;;;;;;5024641;28;20052;-70
2023/06/15 00:16:21;;;;;;;5.47;3.90;;;20.20;90.10;;;;;;5020393;28;20056;-70
2023/06/15 00:18:54;;;;;;;5.25;3.85;;;20.20;89.40;;;;;;5026126;28;20474;-70
2023/06/15 00:21:22;;;;;;;4.00;3.70;;;20.10;90.20;;;;;;5010536;28;20052;-70
2023/06/15 00:23:48;;;;;;;6.00;3.78;;;20.00;89.40;;;;;;5027811;28;20052;-70
2023/06/15 00:26:14;;;;;;;6.53;4.10;;;20.00;90.20;;;;;;5027603;28;20029;-70
2023/06/15 00:28:40;;;;;;;6.13;4.38;;;19.90;90.20;;;;;;5026209;28;20030;-70
2023/06/15 00:31:05;;;;;;;4.35;3.65;;;19.90;90.10;;;;;;5022762;28;20026;-70
2023/06/15 00:33:31;;;;;;;6.07;3.55;;;19.80;90.50;;;;;;5017966;28;20029;-70
2023/06/15 00:35:58;;;;;;;4.82;4.28;;;19.80;90.60;;;;;;5022869;28;20024;-70
2023/06/15 00:38:24;;;;;;;7.85;4.38;;;19.80;90.20;;;;;;5019105;28;20350;-70
2023/06/15 00:40:50;;;;;;;6.18;3.97;;;19.80;90.50;;;;;;5028996;28;20026;-70
2023/06/15 00:43:15;;;;;;;6.53;4.45;;;19.70;90.50;;;;;;5022138;28;20135;-70
2023/06/15 00:45:41;;;;;;;5.93;3.95;;;19.70;90.90;;;;;;5017983;28;20481;-70
2023/06/15 00:48:07;;;;;;;6.78;4.40;;;19.70;91.10;;;;;;5028153;28;20029;-70
2023/06/15 00:50:33;;;;;;;5.88;4.55;;;19.60;90.90;;;;;;5023123;28;20501;-70
2023/06/15 00:53:05;;;;;;;6.28;4.68;;;19.60;91.10;;;;;;5029122;28;20017;-70
2023/06/15 00:55:32;;;;;;;5.57;5.07;;;19.50;91.20;;;;;;5027058;28;20013;-70
2023/06/15 00:57:59;;;;;;;5.95;4.53;;;19.50;91.30;;;;;;5027762;28;20025;-70
2023/06/15 01:00:24;;;;;;;5.35;4.13;;;19.50;90.90;;;;;;5023707;28;20018;-70
2023/06/15 01:02:56;;;;;;;8.52;4.10;;;19.40;92.10;;;;;;5025068;28;20414;-70
2023/06/15 01:05:23;;;;;;;5.38;4.22;;;19.30;91.40;;;;;;5022794;28;20049;-70
2023/06/15 01:07:51;;;;;;;7.25;4.78;;;19.30;91.50;;;;;;5027605;28;20018;-70
2023/06/15 01:10:20;;;;;;;5.10;4.60;;;19.30;91.70;;;;;;5028244;28;20025;-70
2023/06/15 01:12:50;;;;;;;5.50;4.38;;;19.30;91.90;;;;;;5009980;28;20085;-70
2023/06/15 01:15:16;;;;;;;8.85;5.88;;;19.20;91.90;;;;;;5027125;28;20022;-70
2023/06/15 01:17:45;;;;;;;9.95;5.10;;;19.20;92.20;;;;;;5027574;28;20123;-70
2023/06/15 01:20:26;;;;;;;5.22;4.75;;;19.20;92.10;;;;;;5013221;28;20025;-70
2023/06/15 01:22:59;;;;;;;5.53;4.95;;;19.10;92.20;;;;;;5027007;28;20129;-70
2023/06/15 01:25:43;;;;;;;;;;;19.10;92.80;;;;;;5022048;28;20021;-70
2023/06/15 01:28:10;;;;;;;5.20;4.78;;;19.00;92.70;;;;;;5017448;28;19912;-70
2023/06/15 01:30:51;;;;;;;6.38;5.68;;;19.00;92.60;;;;;;5029834;28;20542;-70
2023/06/15 01:33:17;;;;;;;7.65;4.70;;;19.00;93.00;;;;;;5022251;28;20120;-70
2023/06/15 01:35:43;;;;;;;7.18;5.10;;;19.00;93.20;;;;;;5027200;28;20972;-70
2023/06/15 01:38:09;;;;;;;5.45;4.57;;;18.90;92.90;;;;;;5030121;28;20496;-70
2023/06/15 01:40:38;;;;;;;5.85;5.35;;;18.90;93.20;;;;;;5023195;28;20494;-70
2023/06/15 01:43:07;;;;;;;7.65;4.68;;;18.80;93.00;;;;;;5019881;28;20041;-70
2023/06/15 01:45:35;;;;;;;8.82;4.55;;;18.80;93.10;;;;;;5023804;28;20072;-70
2023/06/15 01:48:02;;;;;;;5.78;5.03;;;18.80;92.80;;;;;;5026123;28;20083;-70
2023/06/15 01:50:28;;;;;;;6.57;5.22;;;18.70;93.00;;;;;;5023197;28;20014;-70
2023/06/15 01:52:54;;;;;;;6.53;5.80;;;18.70;93.70;;;;;;5022437;28;20028;-70
2023/06/15 01:55:20;;;;;;;9.82;5.07;;;18.70;93.50;;;;;;5026244;28;20025;-70
2023/06/15 01:57:46;;;;;;;5.22;4.75;;;18.60;93.80;;;;;;5021224;28;20061;-70
2023/06/15 02:00:12;;;;;;;6.45;5.45;;;18.60;93.90;;;;;;5009677;28;20478;-70
2023/06/15 02:02:38;;;;;;;6.00;5.40;;;18.60;94.50;;;;;;5021857;28;20022;-70
2023/06/15 02:05:07;;;;;;;10.00;5.13;;;18.60;95.00;;;;;;5026079;28;20551;-70
2023/06/15 02:07:33;;;;;;;8.57;6.35;;;18.50;95.00;;;;;;5020630;28;20485;-70
2023/06/15 02:09:59;;;;;;;6.88;6.15;;;18.50;94.80;;;;;;5021052;28;20097;-70
2023/06/15 02:12:24;;;;;;;11.88;6.80;;;18.50;95.20;;;;;;5028836;28;20092;-70
2023/06/15 02:14:50;;;;;;;8.35;5.63;;;18.40;94.80;;;;;;5026474;28;20022;-70
2023/06/15 02:17:17;;;;;;;6.18;5.70;;;18.40;95.60;;;;;;5010104;28;20025;-70
2023/06/15 02:19:46;;;;;;;7.05;6.35;;;18.40;95.50;;;;;;5017891;28;20089;-70
2023/06/15 02:22:12;;;;;;;7.32;6.15;;;18.30;95.80;;;;;;5020352;28;20486;-70
2023/06/15 02:24:38;;;;;;;7.40;6.70;;;18.30;95.80;;;;;;5022577;28;20026;-70
2023/06/15 02:27:04;;;;;;;8.75;7.55;;;18.30;96.30;;;;;;5020541;28;20528;-70
2023/06/15 02:29:30;;;;;;;8.43;6.13;;;18.20;96.30;;;;;;5018630;28;20493;-70
2023/06/15 02:31:55;;;;;;;9.13;6.15;;;18.20;96.40;;;;;;5028192;28;20033;-70
2023/06/15 02:34:21;;;;;;;9.23;7.60;;;18.20;96.90;;;;;;5023055;28;20367;-70
2023/06/15 02:36:48;;;;;;;8.10;7.05;;;18.10;96.10;;;;;;5022003;28;20033;-70
2023/06/15 02:39:14;;;;;;;5.90;5.43;;;18.10;96.60;;;;;;5019940;28;20022;-70
2023/06/15 02:41:40;;;;;;;7.68;6.43;;;18.00;96.80;;;;;;5014920;28;20457;-70
2023/06/15 02:44:07;;;;;;;7.97;5.55;;;18.00;96.80;;;;;;5028583;28;20049;-70
2023/06/15 02:46:33;;;;;;;7.72;6.25;;;18.00;97.20;;;;;;5021879;28;20041;-70
2023/06/15 02:48:58;;;;;;;7.75;5.50;;;18.00;97.60;;;;;;5023684;28;20021;-70
2023/06/15 02:51:24;;;;;;;6.75;5.93;;;17.90;97.50;;;;;;5025479;28;20021;-70
2023/06/15 02:53:50;;;;;;;8.10;6.07;;;17.90;97.40;;;;;;5028423;28;20418;-70
2023/06/15 02:56:20;;;;;;;6.75;6.15;;;17.90;97.00;;;;;;5019668;28;20022;-70
2023/06/15 02:58:47;;;;;;;7.20;6.50;;;17.90;97.80;;;;;;5018011;28;20026;-70
2023/06/15 03:01:15;;;;;;;7.70;6.82;;;17.80;97.90;;;;;;5025576;28;20017;-70
2023/06/15 03:03:42;;;;;;;8.25;7.40;;;17.80;97.80;;;;;;5026230;28;20424;-70
2023/06/15 03:06:09;;;;;;;9.57;8.65;;;17.70;98.00;;;;;;5026785;28;20042;-70
2023/06/15 03:08:38;;;;;;;8.13;7.28;;;17.80;98.10;;;;;;5024346;28;20140;-70
2023/06/15 03:11:04;;;;;;;8.80;7.38;;;17.80;98.30;;;;;;5028620;28;20031;-70
2023/06/15 03:13:30;;;;;;;8.35;7.10;;;17.70;98.40;;;;;;5025264;28;20022;-70
2023/06/15 03:15:56;;;;;;;8.63;6.97;;;17.70;98.70;;;;;;5031402;28;20523;-70
2023/06/15 03:18:22;;;;;;;15.68;7.72;;;17.60;98.80;;;;;;5028161;28;20018;-70
2023/06/15 03:20:52;;;;;;;10.20;7.75;;;17.70;98.80;;;;;;5013293;28;20029;-70
2023/06/15 03:23:19;;;;;;;9.45;7.63;;;17.60;99.30;;;;;;5024590;28;20036;-70
2023/06/15 03:25:45;;;;;;;17.55;7.88;;;17.60;99.20;;;;;;5025859;28;20026;-70
2023/06/15 03:28:11;;;;;;;9.93;8.20;;;17.60;99.40;;;;;;5026321;28;20037;-70
2023/06/15 03:30:40;;;;;;;10.52;9.48;;;17.50;98.90;;;;;;5024983;28;20079;-70
2023/06/15 03:33:07;;;;;;;9.75;8.88;;;17.50;99.10;;;;;;5022745;28;20033;-71
2023/06/15 03:35:35;;;;;;;8.95;8.15;;;17.40;99.90;;;;;;5027273;28;20125;-70
2023/06/15 03:38:01;;;;;;;13.43;9.60;;;17.40;99.90;;;;;;5022014;28;20049;-70
2023/06/15 03:40:30;;;;;;;11.52;9.23;;;17.40;99.90;;;;;;5026834;28;20060;-70
2023/06/15 03:42:55;;;;;;;10.98;9.20;;;17.40;99.90;;;;;;5033106;28;20489;-70
2023/06/15 03:45:21;;;;;;;11.32;9.93;;;17.40;99.90;;;;;;5025681;28;20065;-70
2023/06/15 03:47:47;;;;;;;17.35;10.40;;;17.40;99.80;;;;;;5023592;28;20405;-70
2023/06/15 03:50:12;;;;;;;11.43;10.32;;;17.40;99.90;;;;;;5029958;28;20049;-70
2023/06/15 03:52:38;;;;;;;12.15;10.93;;;17.30;99.90;;;;;;5029174;28;20057;-70
2023/06/15 03:55:05;;;;;;;11.75;10.68;;;17.30;99.90;;;;;;5013577;28;20449;-70
2023/06/15 03:57:31;;;;;;;12.50;11.25;;;17.30;99.90;;;;;;5000022;28;20418;-70
2023/06/15 03:59:56;;;;;;;11.57;10.52;;;17.30;99.90;;;;;;5016553;28;20028;-70
2023/06/15 04:02:22;;;;;;;14.07;10.18;;;17.20;99.90;;;;;;5030205;28;20543;-70
2023/06/15 04:04:47;;;;;;;12.82;9.38;;;17.20;99.90;;;;;;5030550;28;20436;-70
2023/06/15 04:07:16;;;;;;;11.93;10.45;;;17.20;99.90;;;;;;5024314;28;20034;-70
2023/06/15 04:09:42;;;;;;;9.93;8.93;;;17.20;99.90;;;;;;5027108;28;20014;-70
2023/06/15 04:12:08;;;;;;;10.90;9.88;;;17.20;99.90;;;;;;5031536;28;20030;-70
2023/06/15 04:14:34;;;;;;;11.38;10.35;;;17.20;99.90;;;;;;5026500;28;20076;-70
2023/06/15 04:17:00;;;;;;;10.63;9.52;;;17.20;99.90;;;;;;5028753;28;20037;-70
2023/06/15 04:19:25;;;;;;;11.77;10.40;;;17.20;99.90;;;;;;5022103;28;20071;-70
2023/06/15 04:21:51;;;;;;;11.40;10.10;;;17.20;99.90;;;;;;5023947;28;20114;-70
2023/06/15 04:24:17;;;;;;;37.67;13.05;;;17.20;99.90;;;;;;5025131;28;20014;-70
2023/06/15 04:26:42;;;;;;;19.27;10.90;;;17.20;99.90;;;;;;5027692;28;20608;-70
2023/06/15 04:29:08;;;;;;;13.43;10.73;;;17.20;99.90;;;;;;5029135;28;20396;-70
2023/06/15 04:31:34;;;;;;;13.73;10.00;;;17.20;99.90;;;;;;5022908;28;20640;-70
2023/06/15 04:34:01;;;;;;;25.00;17.20;;;17.30;99.90;;;;;;5025554;28;20038;-70
2023/06/15 04:36:31;;;;;;;24.92;13.88;;;17.30;99.90;;;;;;5022054;28;20022;-70
2023/06/15 04:38:59;;;;;;;15.63;11.60;;;17.20;99.90;;;;;;5027349;28;20018;-70
2023/06/15 04:41:29;;;;;;;13.82;11.07;;;17.30;99.90;;;;;;5024930;28;20021;-70
2023/06/15 04:43:54;;;;;;;13.15;9.50;;;17.30;99.90;;;;;;5015224;28;20489;-70
2023/06/15 04:46:21;;;;;;;12.40;10.60;;;17.40;99.90;;;;;;5021403;28;20076;-69
2023/06/15 04:48:47;;;;;;;12.02;10.55;;;17.40;99.90;;;;;;5031530;28;20103;-70
2023/06/15 04:51:14;;;;;;;10.95;9.88;;;17.40;99.90;;;;;;5025795;28;20030;-70
2023/06/15 04:53:42;;;;;;;11.55;9.57;;;17.40;99.90;;;;;;5024100;28;20466;-70
2023/06/15 04:56:08;;;;;;;12.27;11.05;;;17.50;99.90;;;;;;5025612;28;20022;-70
2023/06/15 04:58:34;;;;;;;15.40;11.02;;;17.50;99.90;;;;;;5020599;28;20109;-69
2023/06/15 05:00:59;;;;;;;11.98;10.88;;;17.50;99.90;;;;;;5011735;28;20117;-69
2023/06/15 05:03:25;;;;;;;11.57;9.90;;;17.50;99.90;;;;;;5022414;28;20026;-69
2023/06/15 05:05:51;;;;;;;11.68;10.05;;;17.50;99.90;;;;;;5027035;28;20041;-69
2023/06/15 05:08:16;;;;;;;11.77;10.52;;;17.60;99.90;;;;;;5014543;28;20029;-70
2023/06/15 05:10:42;;;;;;;15.45;11.02;;;17.60;99.90;;;;;;5025428;28;20105;-69
2023/06/15 05:13:08;;;;;;;12.95;10.23;;;17.60;99.90;;;;;;5022276;28;20390;-69
2023/06/15 05:15:34;;;;;;;14.45;10.82;;;17.70;99.90;;;;;;5024740;28;20025;-69
2023/06/15 05:18:00;;;;;;;14.93;11.05;;;17.70;99.90;;;;;;5025000;28;20036;-69
2023/06/15 05:20:26;;;;;;;12.95;10.30;;;17.70;99.90;;;;;;5022991;28;20030;-69
2023/06/15 05:22:51;;;;;;;12.43;11.10;;;17.70;99.90;;;;;;5013601;28;20022;-69
2023/06/15 05:25:19;;;;;;;11.60;10.18;;;17.80;99.90;;;;;;5026596;28;20040;-69
2023/06/15 05:27:44;;;;;;;14.25;9.95;;;17.80;99.90;;;;;;5026690;28;20053;-70
2023/06/15 05:30:11;;;;;;;10.88;9.30;;;17.90;99.90;;;;;;5020975;28;20033;-69
2023/06/15 05:32:38;;;;;;;11.20;10.10;;;17.90;99.90;;;;;;5010221;28;20033;-69
2023/06/15 05:35:06;;;;;;;16.58;10.68;;;17.90;99.90;;;;;;5013277;28;20025;-69
2023/06/15 05:37:35;;;;;;;11.57;10.57;;;17.90;99.90;;;;;;5019431;28;20037;-69
2023/06/15 05:40:02;;;;;;;12.85;11.18;;;18.00;99.90;;;;;;5031021;28;20025;-69
2023/06/15 05:42:29;;;;;;;12.77;10.82;;;18.00;99.90;;;;;;5024068;28;20025;-70
2023/06/15 05:44:55;;;;;;;12.07;10.80;;;18.10;99.90;;;;;;5018619;28;20406;-70
2023/06/15 05:47:20;;;;;;;11.90;10.43;;;18.10;99.90;;;;;;5022153;28;20049;-70
2023/06/15 05:49:46;;;;;;;14.30;11.50;;;18.10;99.90;;;;;;5020008;28;20018;-70
2023/06/15 05:52:14;;;;;;;12.98;11.68;;;18.20;99.90;;;;;;5018610;28;20030;-69
2023/06/15 05:54:42;;;;;;;14.23;10.98;;;18.20;99.90;;;;;;5026325;28;20533;-70
2023/06/15 05:57:09;;;;;;;12.68;10.55;;;18.30;99.90;;;;;;5025511;28;20113;-69
2023/06/15 05:59:56;;;;;;;14.57;10.90;;;18.30;99.90;;;;;;5019156;28;20018;-69
2023/06/15 06:02:23;;;;;;;12.50;11.27;;;18.30;99.90;;;;;;5028608;28;22641;-70
2023/06/15 06:04:49;;;;;;;15.98;12.55;;;18.30;99.90;;;;;;5023471;28;20030;-69
2023/06/15 06:07:14;;;;;;;13.00;10.90;;;18.20;99.90;;;;;;5019392;28;20030;-70
2023/06/15 06:09:40;;;;;;;13.32;12.02;;;18.30;99.90;;;;;;5030178;28;20022;-70
2023/06/15 06:12:06;;;;;;;15.05;13.52;;;18.30;99.90;;;;;;5026827;28;20039;-69
2023/06/15 06:14:32;;;;;;;12.55;11.25;;;18.50;99.90;;;;;;5019202;28;20030;-69
2023/06/15 06:16:57;;;;;;;14.25;12.70;;;18.60;99.90;;;;;;5015330;28;20021;-70
2023/06/15 06:19:24;;;;;;;14.95;11.15;;;18.70;99.90;;;;;;5020752;28;20435;-69
2023/06/15 06:21:50;;;;;;;13.57;11.15;;;18.80;99.90;;;;;;5028341;28;20013;-70
2023/06/15 06:24:16;;;;;;;13.82;9.73;;;18.80;99.90;;;;;;5027802;28;20053;-69
2023/06/15 06:26:42;;;;;;;14.93;9.40;;;18.90;99.90;;;;;;5025387;28;20105;-70
2023/06/15 06:29:08;;;;;;;12.05;8.40;;;19.00;99.90;;;;;;5019017;28;20029;-70
2023/06/15 06:31:34;;;;;;;14.25;10.13;;;19.00;99.90;;;;;;5024485;28;20033;-70
2023/06/15 06:34:00;;;;;;;13.40;8.80;;;19.10;99.90;;;;;;5020227;28;20045;-70
2023/06/15 06:36:26;;;;;;;15.40;8.88;;;19.10;99.90;;;;;;5025189;28;20025;-69
2023/06/15 06:38:52;;;;;;;13.85;8.00;;;19.30;99.90;;;;;;5027234;28;20037;-70
2023/06/15 06:41:18;;;;;;;17.88;9.77;;;19.40;99.90;;;;;;5016633;28;20264;-69
2023/06/15 06:43:43;;;;;;;11.18;8.55;;;19.50;99.90;;;;;;5025723;28;20032;-71
2023/06/15 06:46:09;;;;;;;14.23;9.68;;;19.50;99.90;;;;;;5026900;28;20419;-69
2023/06/15 06:48:35;;;;;;;12.95;10.48;;;19.60;99.90;;;;;;5015596;28;20018;-69
2023/06/15 06:51:01;;;;;;;19.15;10.10;;;19.80;99.90;;;;;;5029049;28;20477;-68
2023/06/15 06:53:26;;;;;;;16.25;10.88;;;20.00;99.90;;;;;;5023894;28;20034;-68
2023/06/15 06:55:52;;;;;;;23.58;11.18;;;20.10;99.90;;;;;;5022413;28;20099;-68
2023/06/15 06:58:18;;;;;;;20.67;9.88;;;20.30;99.90;;;;;;5023834;28;20034;-68
2023/06/15 07:00:44;;;;;;;20.45;10.32;;;20.60;99.90;;;;;;5032601;28;20032;-68
2023/06/15 07:03:10;;;;;;;18.80;10.25;;;20.70;99.90;;;;;;5028780;28;20025;-68
2023/06/15 07:05:35;;;;;;;13.90;7.82;;;20.90;99.90;;;;;;5028410;28;20037;-68
2023/06/15 07:08:01;;;;;;;14.45;7.50;;;21.10;99.90;;;;;;5014008;28;20020;-68
2023/06/15 07:10:27;;;;;;;11.60;7.22;;;21.20;99.90;;;;;;5029293;28;20017;-69
2023/06/15 07:12:55;;;;;;;13.00;8.00;;;21.30;99.90;;;;;;5032929;28;20021;-69
2023/06/15 07:15:22;;;;;;;13.75;9.75;;;21.30;99.90;;;;;;5023206;28;20054;-69
2023/06/15 07:17:48;;;;;;;16.20;8.65;;;21.60;99.90;;;;;;5028736;28;20057;-68
2023/06/15 07:20:13;;;;;;;16.50;10.43;;;21.60;99.90;;;;;;5026964;28;20505;-68
2023/06/15 07:22:39;;;;;;;14.63;8.30;;;21.90;99.90;;;;;;5032654;28;20109;-69
2023/06/15 07:25:05;;;;;;;12.65;8.52;;;22.20;99.90;;;;;;5023153;28;20084;-68
2023/06/15 07:27:31;;;;;;;11.48;8.13;;;22.50;99.90;;;;;;5025635;28;20038;-68
2023/06/15 07:29:57;;;;;;;14.40;9.20;;;22.60;99.90;;;;;;5033710;28;20104;-68
2023/06/15 07:32:22;;;;;;;12.07;8.68;;;22.60;99.90;;;;;;5020248;28;20128;-68
2023/06/15 07:34:48;;;;;;;13.57;9.25;;;22.70;99.90;;;;;;5028283;28;20158;-68
2023/06/15 07:37:13;;;;;;;15.40;8.50;;;22.80;99.90;;;;;;5021047;28;20060;-66
2023/06/15 07:39:39;;;;;;;14.93;8.52;;;23.00;99.90;;;;;;5022164;28;20022;-65
2023/06/15 07:42:06;;;;;;;8.77;6.97;;;23.00;99.90;;;;;;5012150;28;20489;-67
2023/06/15 07:44:32;;;;;;;8.93;6.50;;;23.10;99.90;;;;;;5022936;28;20540;-66
2023/06/15 07:46:58;;;;;;;9.93;5.90;;;23.10;99.90;;;;;;5025951;28;20040;-68
2023/06/15 07:49:23;;;;;;;12.10;5.75;;;23.30;99.90;;;;;;5026683;28;20048;-67
2023/06/15 07:51:49;;;;;;;8.20;5.15;;;23.60;97.80;;;;;;5025538;28;20112;-67
2023/06/15 07:54:15;;;;;;;13.73;4.85;;;23.80;98.10;;;;;;5014947;28;20021;-67
2023/06/15 07:56:42;;;;;;;8.05;4.55;;;23.90;99.90;;;;;;5025925;28;20384;-67
2023/06/15 07:59:07;;;;;;;5.75;4.05;;;23.80;97.50;;;;;;5026761;28;20026;-67
2023/06/15 08:01:33;;;;;;;6.90;4.43;;;23.90;97.40;;;;;;5029239;28;20029;-67
2023/06/15 08:04:00;;;;;;;6.72;4.70;;;24.00;97.70;;;;;;5030923;28;20034;-67
2023/06/15 08:06:25;;;;;;;7.20;4.95;;;24.20;96.60;;;;;;5032083;28;20132;-67
2023/06/15 08:08:51;;;;;;;7.47;4.53;;;24.40;96.90;;;;;;5027929;28;20497;-67
2023/06/15 08:11:17;;;;;;;8.27;4.90;;;24.50;98.20;;;;;;5029647;28;20492;-68
2023/06/15 08:13:43;;;;;;;9.38;5.00;;;24.60;95.30;;;;;;5026000;28;20545;-67
2023/06/15 08:16:08;;;;;;;8.35;3.67;;;24.60;95.90;;;;;;5023401;28;20497;-67
2023/06/15 08:18:34;;;;;;;6.20;4.47;;;24.70;95.80;;;;;;5020588;28;20025;-67
2023/06/15 08:21:00;;;;;;;7.20;4.68;;;24.80;94.60;;;;;;5026666;28;20024;-68
2023/06/15 08:23:26;;;;;;;7.78;4.65;;;24.90;95.10;;;;;;5013450;28;20017;-68
2023/06/15 08:25:52;;;;;;;8.77;4.57;;;25.10;93.60;;;;;;5020292;28;20035;-67
2023/06/15 08:28:19;;;;;;;9.15;4.45;;;25.10;93.80;;;;;;5026915;28;20374;-66
2023/06/15 08:30:45;;;;;;;5.32;4.30;;;25.30;92.90;;;;;;5021200;28;20026;-67
2023/06/15 08:33:10;;;;;;;6.90;4.07;;;25.20;92.80;;;;;;5023828;28;20088;-67
2023/06/15 08:35:37;;;;;;;6.57;4.00;;;25.20;90.80;;;;;;5029697;28;20030;-67
2023/06/15 08:38:02;;;;;;;8.35;3.40;;;25.30;91.70;;;;;;5021689;28;20470;-67
2023/06/15 08:40:28;;;;;;;6.45;3.97;;;25.40;91.30;;;;;;5026033;28;20029;-67
2023/06/15 08:42:56;;;;;;;5.95;3.67;;;25.60;91.20;;;;;;5025581;28;20445;-68
2023/06/15 08:45:26;;;;;;;9.40;4.15;;;25.80;91.60;;;;;;5025350;28;20100;-68
2023/06/15 08:47:53;;;;;;;4.45;3.53;;;25.90;91.80;;;;;;5025970;28;20041;-69
2023/06/15 08:50:19;;;;;;;7.93;4.10;;;26.10;91.00;;;;;;5031142;28;20052;-67
2023/06/15 08:52:46;;;;;;;7.85;4.05;;;26.00;91.00;;;;;;5020518;28;20488;-68
2023/06/15 08:55:15;;;;;;;6.68;4.18;;;26.10;91.50;;;;;;5028789;28;20029;-68
2023/06/15 08:57:41;;;;;;;8.48;3.90;;;26.40;89.00;;;;;;5022533;28;20025;-67
2023/06/15 09:00:09;;;;;;;8.73;4.13;;;26.40;89.30;;;;;;5024129;28;20029;-68
2023/06/15 09:02:40;;;;;;;12.60;4.75;;;26.50;87.00;;;;;;5002410;28;20540;-66
2023/06/15 09:05:07;;;;;;;9.73;4.18;;;26.50;90.60;;;;;;5017631;28;20037;-68
2023/06/15 09:07:34;;;;;;;5.47;3.95;;;26.60;87.30;;;;;;5024508;28;20029;-67
2023/06/15 09:10:15;;;;;;;4.93;3.72;;;26.80;85.70;;;;;;5024814;28;20416;-67
2023/06/15 09:12:44;;;;;;;6.80;3.80;;;27.00;85.20;;;;;;5025845;28;20072;-67
2023/06/15 09:15:16;;;;;;;12.93;3.90;;;27.20;81.70;;;;;;5026387;28;20418;-68
2023/06/15 09:17:41;;;;;;;5.90;3.92;;;27.20;83.80;;;;;;5023173;28;20037;-71
2023/06/15 09:20:08;;;;;;;4.70;3.28;;;27.40;82.90;;;;;;5023442;28;20028;-70
2023/06/15 09:22:42;;;;;;;4.43;3.70;;;27.40;82.80;;;;;;5025526;28;20029;-68
2023/06/15 09:25:26;;;;;;;4.82;3.60;;;27.20;80.60;;;;;;5024710;28;20492;-67
2023/06/15 09:27:54;;;;;;;7.10;3.70;;;27.40;81.60;;;;;;5021961;28;20033;-68
2023/06/15 09:30:21;;;;;;;4.75;3.67;;;27.50;80.40;;;;;;5025739;28;20025;-69
2023/06/15 09:32:47;;;;;;;3.72;3.42;;;28.10;80.30;;;;;;5023965;28;20032;-68
2023/06/15 09:35:13;;;;;;;7.53;3.90;;;27.90;77.40;;;;;;5024229;28;20033;-66
2023/06/15 09:37:39;;;;;;;7.22;4.30;;;27.60;78.10;;;;;;5019824;28;20018;-68
2023/06/15 09:40:07;;;;;;;7.07;3.50;;;27.40;79.40;;;;;;5025389;28;20355;-67
2023/06/15 09:42:35;;;;;;;4.60;4.20;;;27.70;80.10;;;;;;5026832;28;20094;-67
2023/06/15 09:45:05;;;;;;;11.13;3.88;;;27.80;78.60;;;;;;5023984;28;20080;-67
2023/06/15 09:47:31;;;;;;;12.43;4.20;;;28.10;76.50;;;;;;5023473;28;20532;-67
2023/06/15 09:49:58;;;;;;;6.65;3.90;;;28.00;77.80;;;;;;5022301;28;20112;-67
2023/06/15 09:52:24;;;;;;;6.10;3.63;;;27.80;79.00;;;;;;5024886;28;20029;-67
2023/06/15 09:54:54;;;;;;;4.85;3.67;;;27.80;79.70;;;;;;5025302;28;20026;-67
2023/06/15 09:57:20;;;;;;;7.68;4.05;;;28.00;80.70;;;;;;5024823;28;20096;-67
2023/06/15 09:59:46;;;;;;;4.40;3.95;;;28.10;79.90;;;;;;5026155;28;20453;-67
2023/06/15 10:02:15;;;;;;;5.97;4.10;;;28.00;77.50;;;;;;5026017;28;20041;-69
2023/06/15 10:04:45;;;;;;;5.88;4.38;;;27.60;79.00;;;;;;5021012;28;20021;-67
2023/06/15 10:07:17;;;;;;;7.68;4.10;;;27.40;79.30;;;;;;5025118;28;20037;-68
2023/06/15 10:09:45;;;;;;;8.43;3.87;;;27.20;78.40;;;;;;5026087;28;20045;-67
2023/06/15 10:12:20;;;;;;;7.90;3.85;;;27.10;81.70;;;;;;5019540;28;20287;-68
2023/06/15 10:15:12;;;;;;;12.25;3.83;;;27.00;78.20;;;;;;5021396;28;20083;-68
2023/06/15 10:17:40;;;;;;;9.25;3.65;;;27.00;77.90;;;;;;5007339;28;20459;-67
2023/06/15 10:20:16;;;;;;;9.35;3.70;;;26.80;79.30;;;;;;5028111;28;20031;-67
2023/06/15 10:23:10;;;;;;;6.72;3.85;;;26.90;79.30;;;;;;5008732;28;20542;-67
2023/06/15 10:25:36;;;;;;;5.55;3.80;;;27.20;81.90;;;;;;5028772;28;20069;-68
2023/06/15 10:28:09;;;;;;;6.95;3.67;;;27.40;81.60;;;;;;5012766;28;21801;-68
2023/06/15 10:30:43;;;;;;;3.88;3.50;;;27.70;79.00;;;;;;5029222;28;20083;-67
2023/06/15 10:33:27;;;;;;;5.45;3.53;;;28.00;80.10;;;;;;5024900;28;20118;-66
2023/06/15 10:36:22;;;;;;;4.38;3.97;;;28.30;77.20;;;;;;5028688;28;20041;-67
2023/06/15 10:39:19;;;;;;;7.30;3.90;;;28.70;81.40;;;;;;5028255;28;20056;-67
2023/06/15 10:41:45;;;;;;;6.00;4.20;;;29.20;73.30;;;;;;5024462;28;20112;-67
2023/06/15 10:44:15;;;;;;;5.65;4.35;;;29.10;77.10;;;;;;5026371;28;20116;-67
2023/06/15 10:46:41;;;;;;;4.90;3.85;;;29.40;76.30;;;;;;5028253;28;20025;-67
2023/06/15 10:49:09;;;;;;;9.70;4.38;;;29.40;73.60;;;;;;5027304;28;20694;-67
2023/06/15 10:51:55;;;;;;;7.40;4.78;;;29.30;70.30;;;;;;5027810;28;20021;-67
2023/06/15 10:54:23;;;;;;;6.90;4.07;;;29.30;73.80;;;;;;5028708;28;20094;-67
2023/06/15 10:56:53;;;;;;;8.07;4.75;;;28.70;72.50;;;;;;5028625;28;20018;-67
2023/06/15 10:59:53;;;;;;;7.55;3.78;;;28.60;71.70;;;;;;5022916;28;20117;-67
2023/06/15 11:02:27;;;;;;;5.15;3.75;;;28.40;71.60;;;;;;5027139;28;20374;-68
2023/06/15 11:04:59;;;;;;;5.80;4.40;;;28.20;72.90;;;;;;5028527;28;20030;-67
2023/06/15 11:07:30;;;;;;;7.30;4.15;;;28.00;76.00;;;;;;5009974;28;20034;-67
2023/06/15 11:09:57;;;;;;;10.95;4.35;;;28.10;72.50;;;;;;5027280;28;20029;-67
2023/06/15 11:12:41;;;;;;;7.10;4.28;;;28.30;71.10;;;;;;5027287;28;20028;-66
2023/06/15 11:15:13;;;;;;;8.75;4.18;;;28.60;77.20;;;;;;5024745;28;20116;-66
2023/06/15 11:17:58;;;;;;;;;;;28.70;73.60;;;;;;5027384;28;20056;-70
2023/06/15 11:20:47;;;;;;;6.75;3.92;;;29.10;74.40;;;;;;5026586;28;19912;-67
2023/06/15 11:23:16;;;;;;;4.22;3.70;;;29.30;73.00;;;;;;5026422;28;20036;-67
2023/06/15 11:25:54;;;;;;;4.70;4.10;;;29.60;72.80;;;;;;5027368;28;20033;-67
2023/06/15 11:28:31;;;;;;;9.82;4.20;;;29.90;72.30;;;;;;5026584;28;20033;-66
2023/06/15 11:31:01;;;;;;;6.53;3.95;;;30.00;67.80;;;;;;5026819;28;20013;-66
2023/06/15 11:33:32;;;;;;;8.50;4.40;;;29.80;68.40;;;;;;5026734;28;20032;-67
2023/06/15 11:36:08;;;;;;;9.30;4.75;;;29.40;68.70;;;;;;5025784;28;20103;-68
2023/06/15 11:38:34;;;;;;;9.05;4.05;;;29.10;70.90;;;;;;5029480;28;20029;-66
2023/06/15 11:41:08;;;;;;;4.05;3.67;;;29.20;70.00;;;;;;5026754;28;20025;-67
2023/06/15 11:43:48;;;;;;;9.10;4.10;;;29.50;70.60;;;;;;5021572;28;20028;-68
2023/06/15 11:46:19;;;;;;;5.78;4.00;;;29.80;68.10;;;;;;5026306;28;20040;-67
2023/06/15 11:48:46;;;;;;;3.75;3.45;;;30.10;68.70;;;;;;5021128;28;20026;-69
2023/06/15 11:51:14;;;;;;;5.47;3.75;;;30.00;67.70;;;;;;5025608;28;20434;-67
2023/06/15 11:53:41;;;;;;;5.18;3.90;;;29.60;66.50;;;;;;5024827;28;20025;-69
2023/06/15 11:56:15;;;;;;;8.52;4.82;;;29.30;70.50;;;;;;5007385;28;20030;-69
2023/06/15 11:58:41;;;;;;;5.90;4.13;;;29.60;69.90;;;;;;5026620;28;20028;-69
2023/06/15 12:01:08;;;;;;;10.50;4.20;;;29.80;69.50;;;;;;5022834;28;20166;-69
2023/06/15 12:03:37;;;;;;;5.35;3.90;;;29.40;69.00;;;;;;5022453;28;20041;-69
2023/06/15 12:06:03;;;;;;;6.22;4.03;;;29.30;69.40;;;;;;5028789;28;20033;-68
2023/06/15 12:08:31;;;;;;;4.80;4.10;;;29.30;66.90;;;;;;5026880;28;20037;-70
2023/06/15 12:10:56;;;;;;;5.03;4.30;;;29.50;67.60;;;;;;5027275;28;20017;-70
2023/06/15 12:13:23;;;;;;;4.55;4.18;;;29.50;68.70;;;;;;5023114;28;20052;-71
2023/06/15 12:15:50;;;;;;;5.88;4.10;;;29.40;68.00;;;;;;5023954;28;20425;-71
2023/06/15 12:18:18;;;;;;;3.90;3.50;;;29.20;69.50;;;;;;5022202;28;20132;-70
2023/06/15 12:20:50;;;;;;;11.07;4.15;;;29.20;69.50;;;;;;5027018;28;20024;-70
2023/06/15 12:23:29;;;;;;;5.55;4.03;;;29.00;70.00;;;;;;5023411;28;20041;-70
2023/06/15 12:25:56;;;;;;;7.53;4.53;;;29.00;71.90;;;;;;5025637;28;20029;-70
2023/06/15 12:28:24;;;;;;;10.57;3.90;;;29.40;70.40;;;;;;5027146;28;20025;-71
2023/06/15 12:30:50;;;;;;;6.10;4.00;;;29.80;68.80;;;;;;5023899;28;20009;-68
2023/06/15 12:33:38;;;;;;;7.20;4.35;;;30.10;67.80;;;;;;5024187;28;20041;-68
2023/06/15 12:36:09;;;;;;;8.20;4.55;;;30.10;67.90;;;;;;5026835;28;20017;-69
2023/06/15 12:38:35;;;;;;;7.27;4.10;;;30.00;64.30;;;;;;5026728;28;20029;-69
2023/06/15 12:41:01;;;;;;;4.68;3.80;;;29.90;64.60;;;;;;5025242;28;20595;-69
2023/06/15 12:43:27;;;;;;;7.90;4.85;;;29.80;67.40;;;;;;5025260;28;20060;-70
2023/06/15 12:45:57;;;;;;;5.35;4.80;;;29.50;68.80;;;;;;5021960;28;20108;-70